Available data for LMML from the past hour
LUQA/MALTA
Metar
LMML 160515Z 34015KT 9999 BKN038 12/04 Q1019 NOSIG

05:15 UTC

Wind: 340° 15kt

Visibility: 9999 m

Sky: BKN 3800 ft

Temp: 12 deg C / 53.6 deg F

Dewpoint: 4 deg C / 39.2 deg F

Pressure: 1019 hPa

TAF
TAF LMML 152300Z 1600/1624 33022KT 9999 FEW040 TEMPO 1600/1606 32022G32KT BECMG 1620/1623 27013KT